sensor_id;sensor_type;location;lat;lon;timestamp;P1;durP1;ratioP1;P2;durP2;ratioP2
8819;SDS011;4446;50.876;4.736;2024-01-16T00:02:18;3.92;;;2.03;;
8819;SDS011;4446;50.876;4.736;2024-01-16T00:04:45;4.70;;;2.15;;
8819;SDS011;4446;50.876;4.736;2024-01-16T00:07:13;2.70;;;1.90;;
8819;SDS011;4446;50.876;4.736;2024-01-16T00:09:40;4.63;;;2.42;;
8819;SDS011;4446;50.876;4.736;2024-01-16T00:12:08;3.05;;;2.20;;
8819;SDS011;4446;50.876;4.736;2024-01-16T00:14:35;7.97;;;3.08;;
8819;SDS011;4446;50.876;4.736;2024-01-16T00:17:02;6.38;;;2.45;;
8819;SDS011;4446;50.876;4.736;2024-01-16T00:19:30;4.28;;;2.65;;
8819;SDS011;4446;50.876;4.736;2024-01-16T00:21:57;4.80;;;2.60;;
8819;SDS011;4446;50.876;4.736;2024-01-16T00:24:27;3.25;;;1.73;;
8819;SDS011;4446;50.876;4.736;2024-01-16T00:26:54;3.60;;;1.80;;
8819;SDS011;4446;50.876;4.736;2024-01-16T00:29:21;3.88;;;2.60;;
8819;SDS011;4446;50.876;4.736;2024-01-16T00:31:48;4.00;;;2.13;;
8819;SDS011;4446;50.876;4.736;2024-01-16T00:34:15;2.53;;;1.70;;
8819;SDS011;4446;50.876;4.736;2024-01-16T00:36:42;2.42;;;1.70;;
8819;SDS011;4446;50.876;4.736;2024-01-16T00:39:10;4.43;;;1.77;;
8819;SDS011;4446;50.876;4.736;2024-01-16T00:41:38;2.70;;;1.67;;
8819;SDS011;4446;50.876;4.736;2024-01-16T00:44:05;5.72;;;2.35;;
8819;SDS011;4446;50.876;4.736;2024-01-16T00:46:32;2.95;;;1.83;;
8819;SDS011;4446;50.876;4.736;2024-01-16T00:48:59;3.70;;;3.05;;
8819;SDS011;4446;50.876;4.736;2024-01-16T00:51:26;3.70;;;2.00;;
8819;SDS011;4446;50.876;4.736;2024-01-16T00:53:54;3.13;;;2.22;;
8819;SDS011;4446;50.876;4.736;2024-01-16T00:56:21;4.50;;;2.10;;
8819;SDS011;4446;50.876;4.736;2024-01-16T00:58:49;4.80;;;1.98;;
8819;SDS011;4446;50.876;4.736;2024-01-16T01:01:16;3.38;;;2.20;;
8819;SDS011;4446;50.876;4.736;2024-01-16T01:03:43;6.93;;;2.40;;
8819;SDS011;4446;50.876;4.736;2024-01-16T01:06:10;3.72;;;2.05;;
8819;SDS011;4446;50.876;4.736;2024-01-16T01:08:38;2.60;;;2.20;;
8819;SDS011;4446;50.876;4.736;2024-01-16T01:11:05;3.50;;;2.10;;
8819;SDS011;4446;50.876;4.736;2024-01-16T01:13:32;2.83;;;1.70;;
8819;SDS011;4446;50.876;4.736;2024-01-16T01:16:00;2.72;;;1.90;;
8819;SDS011;4446;50.876;4.736;2024-01-16T01:18:27;10.60;;;2.15;;
8819;SDS011;4446;50.876;4.736;2024-01-16T01:20:54;7.53;;;3.03;;
8819;SDS011;4446;50.876;4.736;2024-01-16T01:23:21;3.92;;;2.10;;
8819;SDS011;4446;50.876;4.736;2024-01-16T01:25:48;2.55;;;1.75;;
8819;SDS011;4446;50.876;4.736;2024-01-16T01:28:15;5.40;;;1.98;;
8819;SDS011;4446;50.876;4.736;2024-01-16T01:30:42;2.72;;;2.00;;
8819;SDS011;4446;50.876;4.736;2024-01-16T01:33:10;4.82;;;1.75;;
8819;SDS011;4446;50.876;4.736;2024-01-16T01:35:38;10.07;;;2.25;;
8819;SDS011;4446;50.876;4.736;2024-01-16T01:38:05;4.00;;;1.60;;
8819;SDS011;4446;50.876;4.736;2024-01-16T01:40:33;3.80;;;2.25;;
8819;SDS011;4446;50.876;4.736;2024-01-16T01:45:47;2.97;;;1.67;;
8819;SDS011;4446;50.876;4.736;2024-01-16T01:48:26;3.50;;;1.90;;
8819;SDS011;4446;50.876;4.736;2024-01-16T01:50:53;4.28;;;1.90;;
8819;SDS011;4446;50.876;4.736;2024-01-16T01:53:20;4.07;;;1.98;;
8819;SDS011;4446;50.876;4.736;2024-01-16T01:55:47;4.22;;;2.25;;
8819;SDS011;4446;50.876;4.736;2024-01-16T01:58:15;4.78;;;2.00;;
8819;SDS011;4446;50.876;4.736;2024-01-16T02:00:42;5.47;;;2.30;;
8819;SDS011;4446;50.876;4.736;2024-01-16T02:03:10;6.13;;;1.85;;
8819;SDS011;4446;50.876;4.736;2024-01-16T02:05:38;1.73;;;1.52;;
8819;SDS011;4446;50.876;4.736;2024-01-16T02:08:06;2.35;;;1.77;;
8819;SDS011;4446;50.876;4.736;2024-01-16T02:10:34;3.97;;;2.10;;
8819;SDS011;4446;50.876;4.736;2024-01-16T02:13:02;3.17;;;1.70;;
8819;SDS011;4446;50.876;4.736;2024-01-16T02:15:30;2.22;;;1.45;;
8819;SDS011;4446;50.876;4.736;2024-01-16T02:17:57;3.60;;;1.90;;
8819;SDS011;4446;50.876;4.736;2024-01-16T02:20:24;3.90;;;1.50;;
8819;SDS011;4446;50.876;4.736;2024-01-16T02:22:52;2.05;;;1.50;;
8819;SDS011;4446;50.876;4.736;2024-01-16T02:25:27;3.50;;;1.60;;
8819;SDS011;4446;50.876;4.736;2024-01-16T02:27:54;4.43;;;2.00;;
8819;SDS011;4446;50.876;4.736;2024-01-16T02:30:22;4.15;;;1.60;;
8819;SDS011;4446;50.876;4.736;2024-01-16T02:32:49;6.90;;;1.77;;
8819;SDS011;4446;50.876;4.736;2024-01-16T02:35:16;3.40;;;1.80;;
8819;SDS011;4446;50.876;4.736;2024-01-16T02:37:43;3.75;;;1.70;;
8819;SDS011;4446;50.876;4.736;2024-01-16T02:40:10;3.05;;;1.60;;
8819;SDS011;4446;50.876;4.736;2024-01-16T02:42:39;3.05;;;1.90;;
8819;SDS011;4446;50.876;4.736;2024-01-16T02:45:07;4.10;;;1.70;;
8819;SDS011;4446;50.876;4.736;2024-01-16T02:47:34;3.30;;;1.58;;
8819;SDS011;4446;50.876;4.736;2024-01-16T02:50:01;2.03;;;1.60;;
8819;SDS011;4446;50.876;4.736;2024-01-16T02:52:28;5.93;;;1.75;;
8819;SDS011;4446;50.876;4.736;2024-01-16T02:54:55;4.53;;;1.88;;
8819;SDS011;4446;50.876;4.736;2024-01-16T02:57:22;2.45;;;1.60;;
8819;SDS011;4446;50.876;4.736;2024-01-16T02:59:50;2.83;;;1.70;;
8819;SDS011;4446;50.876;4.736;2024-01-16T03:02:17;2.20;;;1.83;;
8819;SDS011;4446;50.876;4.736;2024-01-16T03:04:44;2.92;;;1.92;;
8819;SDS011;4446;50.876;4.736;2024-01-16T03:07:11;2.78;;;1.52;;
8819;SDS011;4446;50.876;4.736;2024-01-16T03:09:38;2.58;;;1.80;;
8819;SDS011;4446;50.876;4.736;2024-01-16T03:12:05;3.17;;;1.70;;
8819;SDS011;4446;50.876;4.736;2024-01-16T03:14:32;3.42;;;1.55;;
8819;SDS011;4446;50.876;4.736;2024-01-16T03:17:02;3.28;;;1.73;;
8819;SDS011;4446;50.876;4.736;2024-01-16T03:19:30;3.35;;;1.50;;
8819;SDS011;4446;50.876;4.736;2024-01-16T03:21:57;2.35;;;1.75;;
8819;SDS011;4446;50.876;4.736;2024-01-16T03:24:24;4.15;;;1.60;;
8819;SDS011;4446;50.876;4.736;2024-01-16T03:26:51;5.57;;;2.15;;
8819;SDS011;4446;50.876;4.736;2024-01-16T03:29:18;2.53;;;1.35;;
8819;SDS011;4446;50.876;4.736;2024-01-16T03:31:46;3.55;;;2.08;;
8819;SDS011;4446;50.876;4.736;2024-01-16T03:34:14;1.50;;;1.27;;
8819;SDS011;4446;50.876;4.736;2024-01-16T03:36:41;2.28;;;1.73;;
8819;SDS011;4446;50.876;4.736;2024-01-16T03:39:08;2.22;;;1.67;;
8819;SDS011;4446;50.876;4.736;2024-01-16T03:41:35;3.25;;;1.90;;
8819;SDS011;4446;50.876;4.736;2024-01-16T03:44:02;2.80;;;1.63;;
8819;SDS011;4446;50.876;4.736;2024-01-16T03:46:29;4.97;;;1.60;;
8819;SDS011;4446;50.876;4.736;2024-01-16T03:48:56;3.92;;;2.47;;
8819;SDS011;4446;50.876;4.736;2024-01-16T03:51:25;2.13;;;1.50;;
8819;SDS011;4446;50.876;4.736;2024-01-16T03:53:52;4.18;;;1.77;;
8819;SDS011;4446;50.876;4.736;2024-01-16T03:56:19;2.50;;;1.63;;
8819;SDS011;4446;50.876;4.736;2024-01-16T03:58:46;3.58;;;1.88;;
8819;SDS011;4446;50.876;4.736;2024-01-16T04:01:13;3.03;;;2.08;;
8819;SDS011;4446;50.876;4.736;2024-01-16T04:03:40;2.67;;;2.47;;
8819;SDS011;4446;50.876;4.736;2024-01-16T04:06:14;2.03;;;1.55;;
8819;SDS011;4446;50.876;4.736;2024-01-16T04:08:43;3.53;;;1.70;;
8819;SDS011;4446;50.876;4.736;2024-01-16T04:11:11;2.45;;;1.70;;
8819;SDS011;4446;50.876;4.736;2024-01-16T04:13:38;1.85;;;1.30;;
8819;SDS011;4446;50.876;4.736;2024-01-16T04:16:05;3.63;;;1.92;;
8819;SDS011;4446;50.876;4.736;2024-01-16T04:18:35;4.85;;;1.92;;
8819;SDS011;4446;50.876;4.736;2024-01-16T04:21:03;6.07;;;2.38;;
8819;SDS011;4446;50.876;4.736;2024-01-16T04:23:31;3.15;;;1.85;;
8819;SDS011;4446;50.876;4.736;2024-01-16T04:26:00;3.38;;;2.00;;
8819;SDS011;4446;50.876;4.736;2024-01-16T04:28:27;2.95;;;1.75;;
8819;SDS011;4446;50.876;4.736;2024-01-16T04:30:54;6.68;;;2.40;;
8819;SDS011;4446;50.876;4.736;2024-01-16T04:33:21;4.25;;;2.08;;
8819;SDS011;4446;50.876;4.736;2024-01-16T04:35:48;3.95;;;2.03;;
8819;SDS011;4446;50.876;4.736;2024-01-16T04:38:15;3.58;;;1.83;;
8819;SDS011;4446;50.876;4.736;2024-01-16T04:40:42;2.35;;;2.15;;
8819;SDS011;4446;50.876;4.736;2024-01-16T04:43:10;4.50;;;2.10;;
8819;SDS011;4446;50.876;4.736;2024-01-16T04:45:37;3.03;;;2.15;;
8819;SDS011;4446;50.876;4.736;2024-01-16T04:48:05;2.72;;;1.85;;
8819;SDS011;4446;50.876;4.736;2024-01-16T04:50:33;4.15;;;2.30;;
8819;SDS011;4446;50.876;4.736;2024-01-16T04:53:00;3.47;;;2.13;;
8819;SDS011;4446;50.876;4.736;2024-01-16T04:55:28;6.20;;;2.40;;
8819;SDS011;4446;50.876;4.736;2024-01-16T04:57:55;4.10;;;2.33;;
8819;SDS011;4446;50.876;4.736;2024-01-16T05:00:24;3.83;;;2.35;;
8819;SDS011;4446;50.876;4.736;2024-01-16T05:02:51;2.90;;;1.85;;
8819;SDS011;4446;50.876;4.736;2024-01-16T05:05:18;6.90;;;2.33;;
8819;SDS011;4446;50.876;4.736;2024-01-16T05:07:45;4.55;;;1.98;;
8819;SDS011;4446;50.876;4.736;2024-01-16T05:10:12;5.45;;;2.20;;
8819;SDS011;4446;50.876;4.736;2024-01-16T05:12:40;3.97;;;2.08;;
8819;SDS011;4446;50.876;4.736;2024-01-16T05:15:07;5.55;;;2.53;;
8819;SDS011;4446;50.876;4.736;2024-01-16T05:17:37;7.95;;;2.72;;
8819;SDS011;4446;50.876;4.736;2024-01-16T05:20:05;9.70;;;2.83;;
8819;SDS011;4446;50.876;4.736;2024-01-16T05:22:33;3.80;;;2.17;;
8819;SDS011;4446;50.876;4.736;2024-01-16T05:25:00;3.17;;;2.20;;
8819;SDS011;4446;50.876;4.736;2024-01-16T05:27:28;3.67;;;2.00;;
8819;SDS011;4446;50.876;4.736;2024-01-16T05:29:54;5.35;;;2.05;;
8819;SDS011;4446;50.876;4.736;2024-01-16T05:32:21;4.13;;;2.00;;
8819;SDS011;4446;50.876;4.736;2024-01-16T05:34:50;2.38;;;1.80;;
8819;SDS011;4446;50.876;4.736;2024-01-16T05:37:17;4.38;;;2.38;;
8819;SDS011;4446;50.876;4.736;2024-01-16T05:39:44;4.25;;;2.53;;
8819;SDS011;4446;50.876;4.736;2024-01-16T05:42:11;6.80;;;2.53;;
8819;SDS011;4446;50.876;4.736;2024-01-16T05:44:38;3.28;;;2.33;;
8819;SDS011;4446;50.876;4.736;2024-01-16T05:47:05;5.95;;;2.58;;
8819;SDS011;4446;50.876;4.736;2024-01-16T05:49:32;3.28;;;2.03;;
8819;SDS011;4446;50.876;4.736;2024-01-16T05:52:01;8.20;;;2.40;;
8819;SDS011;4446;50.876;4.736;2024-01-16T05:54:28;5.40;;;2.72;;
8819;SDS011;4446;50.876;4.736;2024-01-16T05:56:55;8.15;;;2.50;;
8819;SDS011;4446;50.876;4.736;2024-01-16T05:59:22;2.53;;;2.10;;
8819;SDS011;4446;50.876;4.736;2024-01-16T06:01:49;3.88;;;2.15;;
8819;SDS011;4446;50.876;4.736;2024-01-16T06:04:16;3.73;;;2.30;;
8819;SDS011;4446;50.876;4.736;2024-01-16T06:06:44;4.82;;;2.50;;
8819;SDS011;4446;50.876;4.736;2024-01-16T06:09:14;5.35;;;2.33;;
8819;SDS011;4446;50.876;4.736;2024-01-16T06:11:41;4.50;;;2.38;;
8819;SDS011;4446;50.876;4.736;2024-01-16T06:14:08;2.75;;;1.95;;
8819;SDS011;4446;50.876;4.736;2024-01-16T06:16:37;3.97;;;2.58;;
8819;SDS011;4446;50.876;4.736;2024-01-16T06:19:04;5.70;;;2.97;;
8819;SDS011;4446;50.876;4.736;2024-01-16T06:21:33;4.03;;;2.33;;
8819;SDS011;4446;50.876;4.736;2024-01-16T06:24:00;5.43;;;2.55;;
8819;SDS011;4446;50.876;4.736;2024-01-16T06:26:28;4.17;;;2.33;;
8819;SDS011;4446;50.876;4.736;2024-01-16T06:28:56;3.45;;;2.33;;
8819;SDS011;4446;50.876;4.736;2024-01-16T06:31:23;3.63;;;2.40;;
8819;SDS011;4446;50.876;4.736;2024-01-16T06:33:51;6.17;;;2.50;;
8819;SDS011;4446;50.876;4.736;2024-01-16T06:36:18;4.35;;;2.45;;
8819;SDS011;4446;50.876;4.736;2024-01-16T06:38:45;4.50;;;2.40;;
8819;SDS011;4446;50.876;4.736;2024-01-16T06:41:12;5.03;;;2.53;;
8819;SDS011;4446;50.876;4.736;2024-01-16T06:43:42;4.68;;;2.53;;
8819;SDS011;4446;50.876;4.736;2024-01-16T06:46:09;3.55;;;2.35;;
8819;SDS011;4446;50.876;4.736;2024-01-16T06:48:36;3.17;;;2.78;;
8819;SDS011;4446;50.876;4.736;2024-01-16T06:51:04;5.82;;;2.67;;
8819;SDS011;4446;50.876;4.736;2024-01-16T06:53:33;3.70;;;2.42;;
8819;SDS011;4446;50.876;4.736;2024-01-16T06:56:00;9.95;;;2.83;;
8819;SDS011;4446;50.876;4.736;2024-01-16T06:58:28;5.00;;;2.65;;
8819;SDS011;4446;50.876;4.736;2024-01-16T07:00:57;3.75;;;2.00;;
8819;SDS011;4446;50.876;4.736;2024-01-16T07:03:25;5.85;;;3.00;;
8819;SDS011;4446;50.876;4.736;2024-01-16T07:05:52;8.18;;;2.50;;
8819;SDS011;4446;50.876;4.736;2024-01-16T07:08:19;9.60;;;2.50;;
8819;SDS011;4446;50.876;4.736;2024-01-16T07:10:46;4.47;;;2.53;;
8819;SDS011;4446;50.876;4.736;2024-01-16T07:13:13;6.70;;;3.22;;
8819;SDS011;4446;50.876;4.736;2024-01-16T07:15:40;4.75;;;2.55;;
8819;SDS011;4446;50.876;4.736;2024-01-16T07:18:08;5.97;;;2.65;;
8819;SDS011;4446;50.876;4.736;2024-01-16T07:20:35;5.15;;;2.75;;
8819;SDS011;4446;50.876;4.736;2024-01-16T07:23:03;4.80;;;2.90;;
8819;SDS011;4446;50.876;4.736;2024-01-16T07:25:31;4.82;;;2.65;;
8819;SDS011;4446;50.876;4.736;2024-01-16T07:27:58;6.53;;;3.38;;
8819;SDS011;4446;50.876;4.736;2024-01-16T07:30:25;9.43;;;3.00;;
8819;SDS011;4446;50.876;4.736;2024-01-16T07:32:52;6.90;;;2.88;;
8819;SDS011;4446;50.876;4.736;2024-01-16T07:35:21;3.83;;;2.30;;
8819;SDS011;4446;50.876;4.736;2024-01-16T07:37:47;6.70;;;3.03;;
8819;SDS011;4446;50.876;4.736;2024-01-16T07:40:14;3.50;;;2.47;;
8819;SDS011;4446;50.876;4.736;2024-01-16T07:42:42;6.45;;;2.88;;
8819;SDS011;4446;50.876;4.736;2024-01-16T07:45:09;2.85;;;2.35;;
8819;SDS011;4446;50.876;4.736;2024-01-16T07:47:36;3.38;;;2.35;;
8819;SDS011;4446;50.876;4.736;2024-01-16T07:50:03;5.72;;;2.92;;
8819;SDS011;4446;50.876;4.736;2024-01-16T07:52:33;5.75;;;3.08;;
8819;SDS011;4446;50.876;4.736;2024-01-16T07:55:00;5.50;;;2.72;;
8819;SDS011;4446;50.876;4.736;2024-01-16T07:57:28;7.40;;;3.10;;
8819;SDS011;4446;50.876;4.736;2024-01-16T07:59:55;4.53;;;2.50;;
8819;SDS011;4446;50.876;4.736;2024-01-16T08:02:22;5.28;;;2.80;;
8819;SDS011;4446;50.876;4.736;2024-01-16T08:04:53;4.18;;;2.72;;
8819;SDS011;4446;50.876;4.736;2024-01-16T08:07:20;3.60;;;3.00;;
8819;SDS011;4446;50.876;4.736;2024-01-16T08:09:48;5.97;;;2.92;;
8819;SDS011;4446;50.876;4.736;2024-01-16T08:12:15;3.13;;;2.20;;
8819;SDS011;4446;50.876;4.736;2024-01-16T08:14:42;5.28;;;2.80;;
8819;SDS011;4446;50.876;4.736;2024-01-16T08:17:09;3.53;;;2.30;;
8819;SDS011;4446;50.876;4.736;2024-01-16T08:19:36;6.60;;;3.40;;
8819;SDS011;4446;50.876;4.736;2024-01-16T08:22:03;4.40;;;2.95;;
8819;SDS011;4446;50.876;4.736;2024-01-16T08:24:31;7.50;;;3.50;;
8819;SDS011;4446;50.876;4.736;2024-01-16T08:27:00;12.60;;;2.70;;
8819;SDS011;4446;50.876;4.736;2024-01-16T08:29:28;3.67;;;2.58;;
8819;SDS011;4446;50.876;4.736;2024-01-16T08:31:55;4.78;;;2.80;;
8819;SDS011;4446;50.876;4.736;2024-01-16T08:34:22;6.90;;;2.70;;
8819;SDS011;4446;50.876;4.736;2024-01-16T08:36:49;7.32;;;3.17;;
8819;SDS011;4446;50.876;4.736;2024-01-16T08:39:26;3.90;;;2.63;;
8819;SDS011;4446;50.876;4.736;2024-01-16T08:42:00;3.33;;;2.30;;
8819;SDS011;4446;50.876;4.736;2024-01-16T08:44:28;4.55;;;2.47;;
8819;SDS011;4446;50.876;4.736;2024-01-16T08:46:55;5.70;;;3.00;;
8819;SDS011;4446;50.876;4.736;2024-01-16T08:49:22;4.82;;;2.83;;
8819;SDS011;4446;50.876;4.736;2024-01-16T08:51:49;4.85;;;2.97;;
8819;SDS011;4446;50.876;4.736;2024-01-16T08:54:17;4.90;;;3.33;;
8819;SDS011;4446;50.876;4.736;2024-01-16T08:56:44;6.05;;;2.95;;
8819;SDS011;4446;50.876;4.736;2024-01-16T08:59:12;6.47;;;3.42;;
8819;SDS011;4446;50.876;4.736;2024-01-16T09:01:39;9.90;;;3.53;;
8819;SDS011;4446;50.876;4.736;2024-01-16T09:04:07;5.20;;;3.22;;
8819;SDS011;4446;50.876;4.736;2024-01-16T09:06:34;5.15;;;3.25;;
8819;SDS011;4446;50.876;4.736;2024-01-16T09:09:01;5.93;;;2.55;;
8819;SDS011;4446;50.876;4.736;2024-01-16T09:11:29;7.50;;;2.85;;
8819;SDS011;4446;50.876;4.736;2024-01-16T09:13:57;4.15;;;2.78;;
8819;SDS011;4446;50.876;4.736;2024-01-16T09:16:25;4.28;;;2.58;;
8819;SDS011;4446;50.876;4.736;2024-01-16T09:18:52;5.75;;;2.40;;
8819;SDS011;4446;50.876;4.736;2024-01-16T09:21:19;4.50;;;2.40;;
8819;SDS011;4446;50.876;4.736;2024-01-16T09:23:47;2.85;;;2.28;;
8819;SDS011;4446;50.876;4.736;2024-01-16T09:26:14;5.38;;;2.58;;
8819;SDS011;4446;50.876;4.736;2024-01-16T09:28:41;7.63;;;2.97;;
8819;SDS011;4446;50.876;4.736;2024-01-16T09:31:08;3.95;;;2.25;;
8819;SDS011;4446;50.876;4.736;2024-01-16T09:33:36;4.80;;;2.85;;
8819;SDS011;4446;50.876;4.736;2024-01-16T09:36:04;3.85;;;2.47;;
8819;SDS011;4446;50.876;4.736;2024-01-16T09:38:31;3.00;;;2.05;;
8819;SDS011;4446;50.876;4.736;2024-01-16T09:40:58;5.05;;;2.78;;
8819;SDS011;4446;50.876;4.736;2024-01-16T09:43:28;4.10;;;2.35;;
8819;SDS011;4446;50.876;4.736;2024-01-16T09:45:56;3.92;;;2.30;;
8819;SDS011;4446;50.876;4.736;2024-01-16T09:48:27;4.10;;;2.25;;
8819;SDS011;4446;50.876;4.736;2024-01-16T09:50:58;3.10;;;1.85;;
8819;SDS011;4446;50.876;4.736;2024-01-16T09:53:25;4.03;;;2.42;;
8819;SDS011;4446;50.876;4.736;2024-01-16T09:55:52;3.30;;;2.15;;
8819;SDS011;4446;50.876;4.736;2024-01-16T09:58:25;2.28;;;1.58;;
8819;SDS011;4446;50.876;4.736;2024-01-16T10:00:53;4.30;;;2.55;;
8819;SDS011;4446;50.876;4.736;2024-01-16T10:03:21;7.32;;;2.33;;
8819;SDS011;4446;50.876;4.736;2024-01-16T10:05:48;2.55;;;1.85;;
8819;SDS011;4446;50.876;4.736;2024-01-16T10:08:16;4.68;;;2.55;;
8819;SDS011;4446;50.876;4.736;2024-01-16T10:10:46;4.32;;;2.47;;
8819;SDS011;4446;50.876;4.736;2024-01-16T10:13:13;5.20;;;2.58;;
8819;SDS011;4446;50.876;4.736;2024-01-16T10:15:41;3.92;;;2.47;;
8819;SDS011;4446;50.876;4.736;2024-01-16T10:18:21;6.00;;;2.20;;
8819;SDS011;4446;50.876;4.736;2024-01-16T10:20:49;3.75;;;2.33;;
8819;SDS011;4446;50.876;4.736;2024-01-16T10:23:23;3.30;;;2.22;;
8819;SDS011;4446;50.876;4.736;2024-01-16T10:26:06;5.05;;;2.28;;
8819;SDS011;4446;50.876;4.736;2024-01-16T10:28:34;3.67;;;2.20;;
8819;SDS011;4446;50.876;4.736;2024-01-16T10:31:02;3.97;;;2.33;;
8819;SDS011;4446;50.876;4.736;2024-01-16T10:33:29;3.15;;;2.22;;
8819;SDS011;4446;50.876;4.736;2024-01-16T10:36:09;5.05;;;2.42;;
8819;SDS011;4446;50.876;4.736;2024-01-16T10:38:41;5.03;;;2.38;;
8819;SDS011;4446;50.876;4.736;2024-01-16T10:41:10;3.67;;;2.30;;
8819;SDS011;4446;50.876;4.736;2024-01-16T10:43:38;4.03;;;2.20;;
8819;SDS011;4446;50.876;4.736;2024-01-16T10:46:09;4.68;;;2.40;;
8819;SDS011;4446;50.876;4.736;2024-01-16T10:48:38;4.97;;;2.13;;
8819;SDS011;4446;50.876;4.736;2024-01-16T10:51:06;2.38;;;1.77;;
8819;SDS011;4446;50.876;4.736;2024-01-16T10:53:37;3.53;;;1.95;;
8819;SDS011;4446;50.876;4.736;2024-01-16T10:56:11;4.43;;;2.67;;
8819;SDS011;4446;50.876;4.736;2024-01-16T10:58:38;3.42;;;2.67;;
8819;SDS011;4446;50.876;4.736;2024-01-16T11:01:09;3.05;;;2.03;;
8819;SDS011;4446;50.876;4.736;2024-01-16T11:03:40;6.88;;;2.28;;
8819;SDS011;4446;50.876;4.736;2024-01-16T11:06:12;6.72;;;2.28;;
8819;SDS011;4446;50.876;4.736;2024-01-16T11:08:44;6.93;;;2.85;;
8819;SDS011;4446;50.876;4.736;2024-01-16T11:11:13;3.38;;;2.10;;
8819;SDS011;4446;50.876;4.736;2024-01-16T11:13:40;3.63;;;2.15;;
8819;SDS011;4446;50.876;4.736;2024-01-16T11:16:10;5.20;;;2.20;;
8819;SDS011;4446;50.876;4.736;2024-01-16T11:18:38;4.65;;;2.08;;
8819;SDS011;4446;50.876;4.736;2024-01-16T11:21:06;5.40;;;1.92;;
8819;SDS011;4446;50.876;4.736;2024-01-16T11:23:36;4.22;;;2.20;;
8819;SDS011;4446;50.876;4.736;2024-01-16T11:28:53;2.80;;;1.50;;
8819;SDS011;4446;50.876;4.736;2024-01-16T11:31:28;4.28;;;2.10;;
8819;SDS011;4446;50.876;4.736;2024-01-16T11:33:56;2.22;;;1.63;;
8819;SDS011;4446;50.876;4.736;2024-01-16T11:36:43;2.80;;;1.67;;
8819;SDS011;4446;50.876;4.736;2024-01-16T11:39:19;3.15;;;1.75;;
8819;SDS011;4446;50.876;4.736;2024-01-16T11:41:49;8.05;;;1.75;;
8819;SDS011;4446;50.876;4.736;2024-01-16T11:47:03;2.83;;;1.50;;
8819;SDS011;4446;50.876;4.736;2024-01-16T11:49:30;2.53;;;1.40;;
8819;SDS011;4446;50.876;4.736;2024-01-16T11:51:57;2.78;;;1.67;;
8819;SDS011;4446;50.876;4.736;2024-01-16T11:54:25;2.20;;;1.45;;
8819;SDS011;4446;50.876;4.736;2024-01-16T11:56:59;2.97;;;1.75;;
8819;SDS011;4446;50.876;4.736;2024-01-16T12:02:46;4.20;;;1.67;;
8819;SDS011;4446;50.876;4.736;2024-01-16T12:05:18;5.55;;;1.58;;
8819;SDS011;4446;50.876;4.736;2024-01-16T12:07:45;2.97;;;1.73;;
8819;SDS011;4446;50.876;4.736;2024-01-16T12:10:14;3.63;;;1.88;;
8819;SDS011;4446;50.876;4.736;2024-01-16T12:12:43;3.40;;;1.52;;
8819;SDS011;4446;50.876;4.736;2024-01-16T12:15:14;3.70;;;1.58;;
8819;SDS011;4446;50.876;4.736;2024-01-16T12:17:52;4.68;;;1.58;;
8819;SDS011;4446;50.876;4.736;2024-01-16T12:20:20;4.20;;;1.65;;
8819;SDS011;4446;50.876;4.736;2024-01-16T12:22:55;1.70;;;1.35;;
8819;SDS011;4446;50.876;4.736;2024-01-16T12:25:24;2.10;;;1.45;;
8819;SDS011;4446;50.876;4.736;2024-01-16T12:27:56;2.38;;;1.55;;
8819;SDS011;4446;50.876;4.736;2024-01-16T12:30:25;2.47;;;1.38;;
8819;SDS011;4446;50.876;4.736;2024-01-16T12:33:02;3.55;;;1.65;;
8819;SDS011;4446;50.876;4.736;2024-01-16T12:35:32;2.35;;;1.40;;
8819;SDS011;4446;50.876;4.736;2024-01-16T12:38:00;1.98;;;1.35;;
8819;SDS011;4446;50.876;4.736;2024-01-16T12:40:27;3.47;;;1.52;;
8819;SDS011;4446;50.876;4.736;2024-01-16T12:42:55;3.17;;;1.90;;
8819;SDS011;4446;50.876;4.736;2024-01-16T12:45:23;1.98;;;1.58;;
8819;SDS011;4446;50.876;4.736;2024-01-16T12:47:51;3.25;;;2.08;;
8819;SDS011;4446;50.876;4.736;2024-01-16T12:50:19;2.15;;;1.30;;
8819;SDS011;4446;50.876;4.736;2024-01-16T12:52:46;2.10;;;1.60;;
8819;SDS011;4446;50.876;4.736;2024-01-16T12:55:14;4.25;;;1.63;;
8819;SDS011;4446;50.876;4.736;2024-01-16T12:57:42;5.10;;;1.58;;
8819;SDS011;4446;50.876;4.736;2024-01-16T13:02:53;2.60;;;1.55;;
8819;SDS011;4446;50.876;4.736;2024-01-16T13:05:23;1.65;;;1.40;;
8819;SDS011;4446;50.876;4.736;2024-01-16T13:07:59;2.03;;;1.42;;
8819;SDS011;4446;50.876;4.736;2024-01-16T13:10:28;3.42;;;1.58;;
8819;SDS011;4446;50.876;4.736;2024-01-16T13:15:41;4.72;;;1.73;;
8819;SDS011;4446;50.876;4.736;2024-01-16T13:18:17;2.33;;;1.65;;
8819;SDS011;4446;50.876;4.736;2024-01-16T13:20:45;4.28;;;1.67;;
8819;SDS011;4446;50.876;4.736;2024-01-16T13:23:13;2.50;;;1.75;;
8819;SDS011;4446;50.876;4.736;2024-01-16T13:25:42;3.95;;;1.77;;
8819;SDS011;4446;50.876;4.736;2024-01-16T13:28:10;3.05;;;1.75;;
8819;SDS011;4446;50.876;4.736;2024-01-16T13:30:37;2.85;;;1.60;;
8819;SDS011;4446;50.876;4.736;2024-01-16T13:33:05;2.67;;;1.77;;
8819;SDS011;4446;50.876;4.736;2024-01-16T13:35:34;3.53;;;1.67;;
8819;SDS011;4446;50.876;4.736;2024-01-16T13:38:02;1.35;;;1.20;;
8819;SDS011;4446;50.876;4.736;2024-01-16T13:40:30;2.75;;;1.42;;
8819;SDS011;4446;50.876;4.736;2024-01-16T13:42:58;2.15;;;1.70;;
8819;SDS011;4446;50.876;4.736;2024-01-16T13:45:25;1.55;;;1.27;;
8819;SDS011;4446;50.876;4.736;2024-01-16T13:47:53;3.42;;;1.63;;
8819;SDS011;4446;50.876;4.736;2024-01-16T13:50:21;5.95;;;1.70;;
8819;SDS011;4446;50.876;4.736;2024-01-16T13:52:49;3.08;;;1.70;;
8819;SDS011;4446;50.876;4.736;2024-01-16T13:55:16;2.38;;;1.60;;
8819;SDS011;4446;50.876;4.736;2024-01-16T13:57:44;2.80;;;1.90;;
8819;SDS011;4446;50.876;4.736;2024-01-16T14:00:12;3.38;;;1.60;;
8819;SDS011;4446;50.876;4.736;2024-01-16T14:02:41;1.52;;;1.40;;
8819;SDS011;4446;50.876;4.736;2024-01-16T14:05:08;2.83;;;1.65;;
8819;SDS011;4446;50.876;4.736;2024-01-16T14:07:38;4.15;;;1.42;;
8819;SDS011;4446;50.876;4.736;2024-01-16T14:10:05;3.90;;;2.03;;
8819;SDS011;4446;50.876;4.736;2024-01-16T14:12:34;2.42;;;1.60;;
8819;SDS011;4446;50.876;4.736;2024-01-16T14:15:02;2.47;;;1.48;;
8819;SDS011;4446;50.876;4.736;2024-01-16T14:17:34;3.28;;;1.60;;
8819;SDS011;4446;50.876;4.736;2024-01-16T14:20:01;4.32;;;1.58;;
8819;SDS011;4446;50.876;4.736;2024-01-16T14:22:30;4.20;;;1.50;;
8819;SDS011;4446;50.876;4.736;2024-01-16T14:24:59;3.88;;;2.05;;
8819;SDS011;4446;50.876;4.736;2024-01-16T14:27:26;3.38;;;1.60;;
8819;SDS011;4446;50.876;4.736;2024-01-16T14:29:52;1.60;;;1.50;;
8819;SDS011;4446;50.876;4.736;2024-01-16T14:32:20;3.15;;;2.00;;
8819;SDS011;4446;50.876;4.736;2024-01-16T14:34:47;2.17;;;1.50;;
8819;SDS011;4446;50.876;4.736;2024-01-16T14:37:14;2.35;;;1.70;;
8819;SDS011;4446;50.876;4.736;2024-01-16T14:39:42;3.15;;;2.20;;
8819;SDS011;4446;50.876;4.736;2024-01-16T14:42:10;2.90;;;1.40;;
8819;SDS011;4446;50.876;4.736;2024-01-16T14:44:38;2.80;;;1.63;;
8819;SDS011;4446;50.876;4.736;2024-01-16T14:47:05;2.55;;;1.67;;
8819;SDS011;4446;50.876;4.736;2024-01-16T14:49:33;2.25;;;1.70;;
8819;SDS011;4446;50.876;4.736;2024-01-16T14:52:01;4.40;;;1.92;;
8819;SDS011;4446;50.876;4.736;2024-01-16T14:54:28;1.67;;;1.33;;
8819;SDS011;4446;50.876;4.736;2024-01-16T14:56:55;2.83;;;1.95;;
8819;SDS011;4446;50.876;4.736;2024-01-16T14:59:24;2.75;;;1.85;;
8819;SDS011;4446;50.876;4.736;2024-01-16T15:01:51;5.32;;;1.90;;
8819;SDS011;4446;50.876;4.736;2024-01-16T15:04:19;1.85;;;1.55;;
8819;SDS011;4446;50.876;4.736;2024-01-16T15:06:46;2.03;;;1.52;;
8819;SDS011;4446;50.876;4.736;2024-01-16T15:09:16;4.38;;;2.35;;
8819;SDS011;4446;50.876;4.736;2024-01-16T15:11:43;2.67;;;1.90;;
8819;SDS011;4446;50.876;4.736;2024-01-16T15:14:10;2.15;;;1.75;;
8819;SDS011;4446;50.876;4.736;2024-01-16T15:16:39;3.00;;;1.70;;
8819;SDS011;4446;50.876;4.736;2024-01-16T15:19:06;2.95;;;1.80;;
8819;SDS011;4446;50.876;4.736;2024-01-16T15:21:33;6.25;;;2.38;;
8819;SDS011;4446;50.876;4.736;2024-01-16T15:24:02;5.63;;;2.58;;
8819;SDS011;4446;50.876;4.736;2024-01-16T15:26:29;8.20;;;2.63;;
8819;SDS011;4446;50.876;4.736;2024-01-16T15:28:56;3.72;;;2.30;;
8819;SDS011;4446;50.876;4.736;2024-01-16T15:31:23;6.57;;;2.85;;
8819;SDS011;4446;50.876;4.736;2024-01-16T15:33:51;6.68;;;2.90;;
8819;SDS011;4446;50.876;4.736;2024-01-16T15:36:18;9.98;;;3.00;;
8819;SDS011;4446;50.876;4.736;2024-01-16T15:38:46;11.60;;;4.45;;